Time;durP1;ratioP1;P1;durP2;ratioP2;P2;SDS_P1;SDS_P2;PMS_P1;PMS_P2;Temp;Humidity;BMP_temperature;BMP_pressure;BME280_temperature;BME280_humidity;BME280_pressure;Samples;Min_cycle;Max_cycle;Signal;HPM_P1;HPM_P2
2024/01/24 00:00:22;;;;;;;19.97;10.43;;;;;;;-143.21;81.18;74464.53;4974016;28;20231;-91
2024/01/24 00:02:49;;;;;;;20.87;10.60;;;;;;;-143.21;81.01;74464.53;4965639;28;20228;-90
2024/01/24 00:05:16;;;;;;;17.20;10.30;;;;;;;-143.21;80.48;74462.53;4937862;29;20273;-92
2024/01/24 00:07:44;;;;;;;18.80;10.60;;;;;;;-143.21;80.44;74466.50;4955146;29;20268;-91
2024/01/24 00:10:12;;;;;;;20.93;10.30;;;;;;;-143.21;80.38;74474.44;4946379;29;20209;-92
2024/01/24 00:12:39;;;;;;;15.70;9.47;;;;;;;-143.21;80.51;74480.41;4944762;29;20288;-91
2024/01/24 00:15:07;;;;;;;18.50;10.17;;;;;;;-143.21;80.47;74476.44;4938023;28;20198;-91
2024/01/24 00:17:34;;;;;;;18.90;10.33;;;;;;;-143.21;80.58;74490.31;4952700;29;20261;-91
2024/01/24 00:20:01;;;;;;;17.70;9.37;;;;;;;-143.21;80.42;74480.41;4951885;28;20238;-89
2024/01/24 00:22:29;;;;;;;16.90;9.37;;;;;;;-143.21;80.40;74482.38;4941282;28;20202;-92
2024/01/24 00:24:57;;;;;;;15.50;9.47;;;;;;;-143.21;79.95;74484.38;4963719;28;20211;-91
2024/01/24 00:27:24;;;;;;;17.97;9.70;;;;;;;-143.21;80.10;74488.34;4964578;28;20776;-90
2024/01/24 00:29:51;;;;;;;16.47;9.37;;;;;;;-143.21;80.28;74486.34;4960193;28;20205;-90
2024/01/24 00:32:18;;;;;;;14.30;9.20;;;;;;;-143.21;80.30;74490.31;4945269;28;20238;-89
2024/01/24 00:34:45;;;;;;;14.43;8.33;;;;;;;-143.21;80.39;74494.28;4949906;28;20198;-90
2024/01/24 00:37:12;;;;;;;17.03;8.80;;;;;;;-143.21;80.22;74488.34;4947916;29;20584;-91
2024/01/24 00:39:39;;;;;;;14.07;8.40;;;;;;;-143.21;79.99;74498.25;4954658;28;20233;-91
2024/01/24 00:42:07;;;;;;;13.87;8.80;;;;;;;-143.21;80.08;74496.28;4945169;29;20201;-89
2024/01/24 00:44:34;;;;;;;12.83;8.13;;;;;;;-143.21;79.81;74496.28;4945307;28;20217;-90
2024/01/24 00:47:01;;;;;;;17.47;8.80;;;;;;;-143.21;80.02;74502.22;4965747;28;20564;-91
2024/01/24 00:49:28;;;;;;;14.33;8.47;;;;;;;-143.21;80.08;74506.19;4942718;29;20213;-89
2024/01/24 00:51:54;;;;;;;13.50;8.07;;;;;;;-143.21;79.73;74502.22;4945329;29;20325;-90
2024/01/24 00:54:21;;;;;;;14.57;9.07;;;;;;;-143.21;79.76;74498.25;4953762;29;20201;-89
2024/01/24 00:56:48;;;;;;;14.67;7.50;;;;;;;-143.21;79.63;74502.22;4945105;29;20256;-91
2024/01/24 00:59:17;;;;;;;15.20;8.13;;;;;;;-143.21;79.87;74508.19;4955443;28;20269;-89
2024/01/24 01:01:44;;;;;;;15.20;8.47;;;;;;;-143.21;79.66;74508.19;4955420;28;20213;-92
2024/01/24 01:04:11;;;;;;;15.70;9.17;;;;;;;-143.21;79.93;74514.13;4955264;28;20197;-90
2024/01/24 01:06:38;;;;;;;13.33;8.20;;;;;;;-143.21;80.01;74508.19;4958020;29;20201;-90
2024/01/24 01:09:06;;;;;;;14.00;8.53;;;;;;;-143.21;80.13;74502.22;4953660;28;20284;-90
2024/01/24 01:11:33;;;;;;;17.43;9.83;;;;;;;-143.21;80.43;74506.19;4945646;28;20208;-90
2024/01/24 01:14:00;;;;;;;21.23;10.20;;;;;;;-143.21;80.46;74514.13;4948855;28;20206;-91
2024/01/24 01:16:28;;;;;;;19.33;9.37;;;;;;;-143.21;80.42;74510.16;4950485;28;20257;-91
2024/01/24 01:18:55;;;;;;;18.20;9.80;;;;;;;-143.21;80.55;74510.16;4947606;28;20625;-90
2024/01/24 01:21:21;;;;;;;16.47;8.67;;;;;;;-143.21;80.81;74514.13;4939128;29;20229;-92
2024/01/24 01:23:48;;;;;;;18.00;9.30;;;;;;;-143.21;80.64;74520.09;4942812;29;20206;-90
2024/01/24 01:26:15;;;;;;;19.23;9.23;;;;;;;-143.21;80.76;74506.19;4956434;28;20201;-91
2024/01/24 01:28:42;;;;;;;14.97;8.47;;;;;;;-143.21;80.39;74510.16;4970395;28;20261;-90
2024/01/24 01:31:09;;;;;;;16.80;8.43;;;;;;;-143.21;80.13;74510.16;4972507;28;20194;-90
2024/01/24 01:33:37;;;;;;;14.43;8.83;;;;;;;-143.21;80.45;74522.06;4972425;28;20197;-90
2024/01/24 01:36:05;;;;;;;17.53;9.13;;;;;;;-143.21;80.56;74516.13;4962337;28;20205;-88
2024/01/24 01:38:32;;;;;;;15.57;8.77;;;;;;;-143.21;80.39;74512.16;4961142;29;20696;-91
2024/01/24 01:40:58;;;;;;;16.47;8.93;;;;;;;-143.21;80.67;74508.19;4945066;29;20222;-90
2024/01/24 01:43:25;;;;;;;16.73;8.90;;;;;;;-143.21;80.42;74512.16;4954240;29;20202;-90
2024/01/24 01:45:58;;;;;;;15.33;9.23;;;;;;;-143.21;80.80;74510.16;4968393;29;20208;-91
2024/01/24 01:48:25;;;;;;;24.50;10.17;;;;;;;-143.21;81.10;74524.06;4938736;29;20218;-91
2024/01/24 01:50:54;;;;;;;18.60;9.50;;;;;;;-143.21;81.19;74532.00;4936123;29;20299;-91
2024/01/24 01:53:21;;;;;;;15.10;8.37;;;;;;;-143.21;81.42;74514.13;4966767;28;20204;-89
2024/01/24 01:55:49;;;;;;;17.47;8.57;;;;;;;-143.21;80.93;74514.13;4938137;29;20205;-94
2024/01/24 01:58:17;;;;;;;19.13;8.40;;;;;;;-143.21;80.47;74506.19;4944220;28;20217;-90
2024/01/24 02:00:47;;;;;;;25.20;13.37;;;;;;;-143.21;80.18;74524.06;4946806;29;20239;-90
2024/01/24 02:03:14;;;;;;;25.90;10.37;;;;;;;-143.21;79.72;74545.88;4947561;29;20684;-90
2024/01/24 02:05:42;;;;;;;19.77;9.53;;;;;;;-143.21;80.97;74577.63;4958416;28;20224;-89
2024/01/24 02:08:10;;;;;;;16.50;9.23;;;;;;;-143.21;81.38;74561.75;4943605;28;20212;-90
2024/01/24 02:10:38;;;;;;;22.30;10.63;;;;;;;-143.21;81.36;74551.84;4944991;28;20463;-90
2024/01/24 02:13:06;;;;;;;29.20;14.97;;;;;;;-143.21;80.17;74549.84;4967752;28;20209;-89
2024/01/24 02:15:32;;;;;;;23.67;11.43;;;;;;;-143.21;80.63;74571.69;4960093;28;20225;-90
2024/01/24 02:17:59;;;;;;;23.07;11.83;;;;;;;-143.21;81.53;74591.53;4947572;28;20701;-91
2024/01/24 02:20:27;;;;;;;21.60;12.03;;;;;;;-143.21;81.59;74577.63;4975401;28;20228;-90
2024/01/24 02:22:54;;;;;;;23.03;13.27;;;;;;;-143.21;81.47;74557.78;4952978;29;20211;-88
2024/01/24 02:25:22;;;;;;;24.37;12.87;;;;;;;-143.21;80.74;74561.75;4950177;28;20201;-90
2024/01/24 02:27:49;;;;;;;19.93;11.27;;;;;;;-143.21;80.22;74565.72;4954127;29;20211;-89
2024/01/24 02:30:16;;;;;;;16.43;9.53;;;;;;;-143.21;81.22;74581.59;4954211;28;20578;-91
2024/01/24 02:32:43;;;;;;;17.43;9.70;;;;;;;-143.21;81.29;74567.72;4965969;28;20193;-90
2024/01/24 02:35:10;;;;;;;18.17;10.13;;;;;;;-143.21;80.82;74549.84;4954505;29;20201;-90
2024/01/24 02:37:38;;;;;;;17.10;9.97;;;;;;;-143.21;79.92;74545.88;4967512;28;20236;-90
2024/01/24 02:40:06;;;;;;;16.63;9.93;;;;;;;-143.21;79.95;74567.72;4956453;28;20237;-90
2024/01/24 02:42:34;;;;;;;19.37;10.30;;;;;;;-143.21;80.51;74581.59;4942576;29;20986;-90
2024/01/24 02:45:01;;;;;;;19.57;10.93;;;;;;;-143.21;80.80;74575.66;4947381;29;20229;-89
2024/01/24 02:47:28;;;;;;;19.90;10.40;;;;;;;-143.21;80.45;74565.72;4946868;28;20449;-91
2024/01/24 02:49:57;;;;;;;15.17;7.67;;;;;;;-143.21;80.27;74545.88;4952308;28;20202;-89
2024/01/24 02:52:25;;;;;;;19.20;9.67;;;;;;;-143.21;79.60;74567.72;4955508;29;20198;-90
2024/01/24 02:54:52;;;;;;;16.43;10.23;;;;;;;-143.21;79.99;74587.56;4959540;29;20209;-91
2024/01/24 02:57:18;;;;;;;17.83;9.90;;;;;;;-143.21;81.15;74593.50;4954329;28;20209;-92
2024/01/24 02:59:47;;;;;;;29.40;16.43;;;;;;;-143.21;80.91;74585.56;4948924;28;20260;-90
2024/01/24 03:02:14;;;;;;;24.27;15.13;;;;;;;-143.21;80.92;74571.69;4950411;29;20766;-90
2024/01/24 03:04:41;;;;;;;32.37;19.57;;;;;;;-143.21;79.79;74573.66;4958454;29;20208;-89
2024/01/24 03:07:07;;;;;;;35.87;20.73;;;;;;;-143.21;80.13;74583.59;4957275;28;20265;-90
2024/01/24 03:09:34;;;;;;;34.57;21.23;;;;;;;-143.21;81.01;74591.53;4966054;28;20249;-90
2024/01/24 03:12:01;;;;;;;31.67;19.47;;;;;;;-143.21;81.58;74589.53;4961108;28;20642;-92
2024/01/24 03:14:28;;;;;;;26.10;14.57;;;;;;;-143.21;81.87;74579.63;4957027;28;20201;-90
2024/01/24 03:16:57;;;;;;;19.93;11.70;;;;;;;-143.21;81.35;74561.75;4954910;28;20198;-90
2024/01/24 03:19:24;;;;;;;16.77;8.87;;;;;;;-143.21;79.88;74549.84;4948457;29;20209;-91
2024/01/24 03:21:51;;;;;;;14.97;8.67;;;;;;;-143.21;79.91;74559.78;4937657;28;20257;-88
2024/01/24 03:24:18;;;;;;;20.90;10.57;;;;;;;-143.21;80.41;74571.69;4933842;29;20216;-91
2024/01/24 03:26:45;;;;;;;21.00;11.63;;;;;;;-143.21;80.45;74561.75;4951126;29;20193;-91
2024/01/24 03:29:12;;;;;;;22.00;10.37;;;;;;;-143.21;80.17;74551.84;4960141;28;20220;-91
2024/01/24 03:31:43;;;;;;;20.00;10.23;;;;;;;-143.21;79.72;74547.88;4968051;28;20201;-90
2024/01/24 03:34:11;;;;;;;18.73;9.93;;;;;;;-143.21;78.74;74571.69;4947743;28;20640;-92
2024/01/24 03:36:55;;;;;;;26.60;14.40;;;;;;;-143.21;79.77;74615.34;5109153;27;1360654;-91
2024/01/24 03:39:22;;;;;;;25.63;14.50;;;;;;;-143.21;80.76;74619.31;5117094;28;20706;-90
2024/01/24 03:41:49;;;;;;;28.73;16.20;;;;;;;-143.21;80.53;74599.47;5129096;28;20649;-90
2024/01/24 03:44:15;;;;;;;23.90;14.40;;;;;;;-143.21;80.58;74593.50;5117067;28;20200;-89
2024/01/24 03:46:42;;;;;;;30.23;16.90;;;;;;;-143.21;79.99;74591.53;5119592;28;20267;-91
2024/01/24 03:49:10;;;;;;;29.20;15.77;;;;;;;-143.21;79.25;74583.59;5130358;28;20795;-91
2024/01/24 03:51:37;;;;;;;29.50;16.57;;;;;;;-143.21;79.33;74609.38;5099665;28;20226;-91
2024/01/24 03:54:06;;;;;;;29.03;16.00;;;;;;;-143.21;80.67;74631.22;5096280;28;20609;-92
2024/01/24 03:56:32;;;;;;;26.37;14.00;;;;;;;-143.21;81.27;74613.34;5101769;28;20767;-91
2024/01/24 03:58:59;;;;;;;24.27;13.27;;;;;;;-143.21;80.89;74601.44;5102435;28;20192;-90
2024/01/24 04:01:27;;;;;;;25.50;13.60;;;;;;;-143.21;80.82;74575.66;5108993;28;20198;-91
2024/01/24 04:03:54;;;;;;;24.13;12.73;;;;;;;-143.21;80.34;74571.69;5109517;28;20198;-92
2024/01/24 04:06:21;;;;;;;24.13;12.27;;;;;;;-143.21;79.63;74559.78;5118034;28;20257;-92
2024/01/24 04:08:48;;;;;;;23.93;13.30;;;;;;;-143.21;79.46;74565.72;5118991;28;20597;-91
2024/01/24 04:11:16;;;;;;;30.77;18.13;;;;;;;-143.21;79.31;74569.69;5114939;28;20196;-92
2024/01/24 04:13:43;;;;;;;40.30;25.70;;;;;;;-143.21;78.80;74579.63;5113499;28;20204;-91
2024/01/24 04:16:10;;;;;;;42.47;27.03;;;;;;;-143.21;78.66;74581.59;5096095;28;20236;-90
2024/01/24 04:18:37;;;;;;;43.37;22.60;;;;;;;-143.21;78.24;74575.66;5107616;28;20204;-92
2024/01/24 04:21:05;;;;;;;37.73;19.67;;;;;;;-143.21;78.46;74569.69;5108244;28;20289;-90
2024/01/24 04:23:32;;;;;;;37.43;20.40;;;;;;;-143.21;78.55;74571.69;5108047;28;20244;-91
2024/01/24 04:25:58;;;;;;;29.80;15.80;;;;;;;-143.21;78.39;74571.69;5108025;28;20611;-91
2024/01/24 04:28:27;;;;;;;29.07;15.40;;;;;;;-143.21;77.61;74571.69;5103554;28;20197;-92
2024/01/24 04:30:53;;;;;;;33.90;16.77;;;;;;;-143.21;77.63;74565.72;5099967;28;20227;-91
2024/01/24 04:33:20;;;;;;;33.80;17.77;;;;;;;-143.21;77.24;74561.75;5107784;28;20200;-91
2024/01/24 04:35:47;;;;;;;29.37;16.63;;;;;;;-143.21;77.33;74557.78;5107673;28;20258;-91
2024/01/24 04:38:14;;;;;;;36.37;16.83;;;;;;;-143.21;77.38;74563.75;5112042;28;20196;-91
2024/01/24 04:40:41;;;;;;;28.20;16.73;;;;;;;-143.21;77.05;74557.78;5108386;28;20200;-91
2024/01/24 04:43:08;;;;;;;29.00;16.17;;;;;;;-143.21;76.94;74557.78;5091085;28;20201;-91
2024/01/24 04:45:37;;;;;;;29.80;16.50;;;;;;;-143.21;77.47;74573.66;5098597;28;20191;-91
2024/01/24 04:48:05;;;;;;;28.73;15.90;;;;;;;-143.21;77.75;74567.72;5092020;28;20212;-91
2024/01/24 04:50:32;;;;;;;28.13;15.03;;;;;;;-143.21;77.76;74567.72;5095931;28;20228;-91
2024/01/24 04:52:59;;;;;;;28.20;14.80;;;;;;;-143.21;77.95;74575.66;5076046;28;20585;-91
2024/01/24 04:55:26;;;;;;;28.33;14.73;;;;;;;-143.21;78.15;74579.63;5084908;28;20221;-90
2024/01/24 04:57:53;;;;;;;21.40;12.33;;;;;;;-143.21;78.42;74585.56;5080074;28;20632;-92
2024/01/24 05:00:20;;;;;;;27.43;13.73;;;;;;;-143.21;78.50;74593.50;5095484;28;20278;-90
2024/01/24 05:02:48;;;;;;;22.53;13.50;;;;;;;-143.21;77.96;74583.59;5094616;28;20212;-89
2024/01/24 05:05:15;;;;;;;22.30;13.13;;;;;;;-143.21;77.97;74585.56;5096927;28;20280;-89
2024/01/24 05:07:42;;;;;;;24.97;13.87;;;;;;;-143.21;77.87;74589.53;5085293;28;20194;-90
2024/01/24 05:10:09;;;;;;;29.60;17.30;;;;;;;-143.21;77.95;74589.53;5085166;28;20213;-89
2024/01/24 05:12:36;;;;;;;34.07;17.73;;;;;;;-143.21;77.80;74593.50;5100137;28;20411;-92
2024/01/24 05:15:03;;;;;;;36.03;18.97;;;;;;;-143.21;77.79;74593.50;5114255;28;20197;-89
2024/01/24 05:17:31;;;;;;;36.90;17.80;;;;;;;-143.21;77.59;74593.50;5096830;28;20283;-90
2024/01/24 05:19:59;;;;;;;35.87;19.40;;;;;;;-143.21;77.49;74595.50;5077978;28;20548;-91
2024/01/24 05:22:26;;;;;;;46.07;25.97;;;;;;;-143.21;77.67;74597.47;5084961;28;20635;-91
2024/01/24 05:24:52;;;;;;;42.33;22.03;;;;;;;-143.21;77.73;74603.44;5087555;28;20201;-90
2024/01/24 05:27:19;;;;;;;42.77;22.47;;;;;;;-143.21;77.56;74609.38;5094995;28;20285;-91
2024/01/24 05:29:47;;;;;;;45.93;24.13;;;;;;;-143.21;77.41;74607.41;5099592;28;20200;-92
2024/01/24 05:32:14;;;;;;;39.17;20.73;;;;;;;-143.21;77.30;74615.34;5116731;28;20268;-92
2024/01/24 05:34:41;;;;;;;47.37;23.10;;;;;;;-143.21;77.74;74609.38;5117995;28;20211;-91
2024/01/24 05:37:10;;;;;;;47.60;22.80;;;;;;;-143.21;77.59;74601.44;5099589;28;20223;-91
2024/01/24 05:39:37;;;;;;;48.43;21.47;;;;;;;-143.21;78.13;74597.47;5099772;28;20718;-90
2024/01/24 05:42:04;;;;;;;51.10;26.03;;;;;;;-143.21;78.27;74607.41;5083097;28;20212;-91
2024/01/24 05:44:31;;;;;;;52.90;26.70;;;;;;;-143.21;78.09;74615.34;5078035;28;20197;-88
2024/01/24 05:46:58;;;;;;;49.00;27.17;;;;;;;-143.21;78.24;74621.28;5082360;28;20208;-91
2024/01/24 05:49:25;;;;;;;46.90;24.57;;;;;;;-143.21;78.31;74623.28;5090243;28;20200;-96
2024/01/24 05:51:52;;;;;;;43.50;23.30;;;;;;;-143.21;78.17;74619.31;5091241;28;20244;-94
2024/01/24 05:54:22;;;;;;;43.23;23.37;;;;;;;-143.21;78.54;74623.28;5097353;28;20212;-91
2024/01/24 05:56:49;;;;;;;45.63;24.77;;;;;;;-143.21;78.76;74631.22;5093213;28;20219;-91
2024/01/24 05:59:18;;;;;;;40.77;22.70;;;;;;;-143.21;78.79;74625.25;5086038;28;20193;-90
2024/01/24 06:01:45;;;;;;;49.83;25.03;;;;;;;-143.21;78.92;74623.28;5089368;28;20233;-90
2024/01/24 06:04:12;;;;;;;44.50;23.47;;;;;;;-143.21;78.79;74611.38;5080483;28;20250;-91
2024/01/24 06:06:38;;;;;;;44.67;24.13;;;;;;;-143.21;78.70;74605.41;5091998;28;20200;-91
2024/01/24 06:09:05;;;;;;;49.00;26.40;;;;;;;-143.21;78.73;74597.47;5092632;28;20662;-92
2024/01/24 06:11:50;;;;;;;55.97;27.17;;;;;;;-143.21;78.52;74605.41;5094696;28;20188;-96
2024/01/24 06:14:17;;;;;;;54.20;27.27;;;;;;;-143.21;78.61;74605.41;5086576;28;20188;-91
2024/01/24 06:16:44;;;;;;;54.60;30.47;;;;;;;-143.21;78.37;74611.38;5092691;28;20220;-91
2024/01/24 06:19:10;;;;;;;47.73;27.07;;;;;;;-143.21;78.16;74597.47;5092805;28;20203;-92
2024/01/24 06:21:37;;;;;;;51.43;27.47;;;;;;;-143.21;78.08;74587.56;5092748;28;20207;-92
2024/01/24 06:24:06;;;;;;;50.87;26.33;;;;;;;-143.21;77.80;74581.59;5092869;28;20197;-91
2024/01/24 06:26:34;;;;;;;40.00;22.33;;;;;;;-143.21;78.32;74607.41;5079788;28;20204;-93
2024/01/24 06:29:09;;;;;;;42.67;22.67;;;;;;;-143.21;78.66;74619.31;5096936;28;20204;-92
2024/01/24 06:31:36;;;;;;;40.33;20.50;;;;;;;-143.21;79.11;74633.19;5101003;28;20199;-91
2024/01/24 06:34:03;;;;;;;29.40;16.10;;;;;;;-143.21;79.74;74627.25;5084302;28;20198;-92
2024/01/24 06:36:30;;;;;;;28.43;15.73;;;;;;;-143.21;80.03;74633.19;5087440;28;20238;-91
2024/01/24 06:39:02;;;;;;;32.50;15.37;;;;;;;-143.21;80.01;74625.25;5088888;28;20212;-91
2024/01/24 06:41:29;;;;;;;22.23;14.27;;;;;;;-143.21;80.33;74645.09;5094129;28;20207;-89
2024/01/24 06:43:56;;;;;;;35.70;20.70;;;;;;;-143.21;80.14;74623.28;5096228;28;20413;-90
2024/01/24 06:46:26;;;;;;;38.43;24.67;;;;;;;-143.21;79.96;74623.28;5074831;28;20218;-91
2024/01/24 06:48:53;;;;;;;50.43;29.63;;;;;;;-143.21;79.53;74613.34;5082328;28;20246;-91
2024/01/24 06:51:20;;;;;;;48.93;28.57;;;;;;;-143.21;79.09;74607.41;5076003;28;20224;-92
2024/01/24 06:53:48;;;;;;;40.43;24.37;;;;;;;-143.21;78.78;74593.50;5091657;28;20207;-93
2024/01/24 06:56:15;;;;;;;39.07;23.07;;;;;;;-143.21;78.66;74587.56;5079601;28;20593;-92
2024/01/24 06:58:41;;;;;;;41.33;23.57;;;;;;;-143.21;78.22;74587.56;5094501;28;20641;-92
2024/01/24 07:01:08;;;;;;;41.10;21.90;;;;;;;-143.21;78.33;74585.56;5107559;28;20227;-91
2024/01/24 07:03:37;;;;;;;36.77;21.13;;;;;;;-143.21;78.59;74601.44;5086413;28;20196;-93
2024/01/24 07:06:05;;;;;;;33.63;19.03;;;;;;;-143.21;79.08;74595.50;5092155;28;20254;-92
2024/01/24 07:08:35;;;;;;;37.03;21.83;;;;;;;-143.21;79.39;74591.53;5096394;28;20227;-91
2024/01/24 07:11:03;;;;;;;37.70;22.20;;;;;;;-143.21;78.72;74561.75;5090270;28;20591;-92
2024/01/24 07:13:29;;;;;;;33.13;18.07;;;;;;;-143.21;78.59;74551.84;5088455;28;20200;-90
2024/01/24 07:15:57;;;;;;;37.40;18.07;;;;;;;-143.21;78.57;74551.84;5071794;28;20220;-91
2024/01/24 07:18:24;;;;;;;37.27;20.40;;;;;;;-143.21;78.27;74539.94;5087073;28;20205;-90
2024/01/24 07:20:52;;;;;;;32.67;18.73;;;;;;;-143.21;78.11;74543.91;5089797;28;20220;-91
2024/01/24 07:23:19;;;;;;;36.67;19.07;;;;;;;-143.21;77.77;74533.97;5091736;28;20211;-91
2024/01/24 07:25:46;;;;;;;29.93;17.37;;;;;;;-143.21;77.71;74537.94;5084908;28;20233;-90
2024/01/24 07:28:13;;;;;;;30.07;16.97;;;;;;;-143.21;78.00;74547.88;5095943;28;20669;-92
2024/01/24 07:30:41;;;;;;;24.70;13.07;;;;;;;-143.21;77.65;74553.81;5091522;28;20222;-92
2024/01/24 07:33:07;;;;;;;18.73;10.40;;;;;;;-143.21;77.85;74549.84;5091243;28;20204;-91
2024/01/24 07:35:34;;;;;;;18.90;10.13;;;;;;;-143.21;77.87;74551.84;5094875;28;20260;-92
2024/01/24 07:38:07;;;;;;;20.50;10.57;;;;;;;-143.21;78.04;74541.91;5084700;22;20225;-91
2024/01/24 07:40:34;;;;;;;16.33;9.87;;;;;;;-143.21;77.85;74549.84;5059747;22;20393;-91
2024/01/24 07:43:01;;;;;;;19.70;9.73;;;;;;;-143.21;77.71;74551.84;5048519;28;20202;-91
2024/01/24 07:45:29;;;;;;;13.30;9.00;;;;;;;-143.21;77.29;74530.00;5031875;28;20252;-91
2024/01/24 07:47:56;;;;;;;14.00;8.53;;;;;;;-143.21;76.98;74535.97;5034162;28;20210;-92
2024/01/24 07:50:23;;;;;;;15.43;8.93;;;;;;;-143.21;77.04;74530.00;5051467;28;20229;-92
2024/01/24 07:52:50;;;;;;;14.80;8.30;;;;;;;-143.21;77.22;74524.06;5043374;28;20230;-91
2024/01/24 07:55:18;;;;;;;18.37;9.03;;;;;;;-143.21;77.10;74510.16;5054342;28;20734;-94
2024/01/24 07:57:45;;;;;;;17.43;9.97;;;;;;;-143.21;76.81;74510.16;5058597;28;20293;-90
2024/01/24 08:00:16;;;;;;;18.20;9.97;;;;;;;-143.21;77.06;74498.25;5039272;28;20265;-89
2024/01/24 08:02:43;;;;;;;21.50;10.17;;;;;;;-143.21;76.54;74496.28;5036944;28;20260;-88
2024/01/24 08:05:12;;;;;;;15.93;9.77;;;;;;;-143.21;75.89;74484.38;5036491;28;20208;-88
2024/01/24 08:07:40;;;;;;;18.60;10.07;;;;;;;-143.21;76.23;74476.44;5038322;28;20211;-89
2024/01/24 08:10:10;;;;;;;15.90;9.97;;;;;;;-143.21;76.17;74470.47;5043556;28;20207;-89
2024/01/24 08:12:38;;;;;;;20.20;10.33;;;;;;;-143.21;76.03;74466.50;5039556;28;20190;-90
2024/01/24 08:15:07;;;;;;;19.27;9.70;;;;;;;-143.21;76.11;74484.38;5049525;28;20202;-90
2024/01/24 08:17:34;;;;;;;18.87;10.27;;;;;;;-143.21;76.03;74486.34;5049749;28;20222;-89
2024/01/24 08:20:03;;;;;;;21.03;10.83;;;;;;;-143.21;76.10;74470.47;5032494;28;20202;-88
2024/01/24 08:22:30;;;;;;;20.10;10.73;;;;;;;-143.21;75.84;74478.41;5040422;28;20213;-88
2024/01/24 08:25:00;;;;;;;20.63;10.17;;;;;;;-143.21;75.58;74468.50;5039760;28;20205;-88
2024/01/24 08:27:29;;;;;;;16.37;10.60;;;;;;;-143.21;75.79;74484.38;5036569;28;20209;-90
2024/01/24 08:29:59;;;;;;;17.77;9.70;;;;;;;-143.21;75.85;74496.28;5048763;28;20740;-89
2024/01/24 08:32:26;;;;;;;18.83;10.07;;;;;;;-143.21;75.98;74498.25;5036057;28;20253;-91
2024/01/24 08:34:53;;;;;;;18.20;10.20;;;;;;;-143.21;76.60;74498.25;5045472;28;20199;-89
2024/01/24 08:37:20;;;;;;;19.27;9.97;;;;;;;-143.21;75.43;74472.47;5039557;28;20226;-88
2024/01/24 08:39:49;;;;;;;20.20;10.87;;;;;;;-143.21;76.05;74466.50;5038553;28;20211;-90
2024/01/24 08:42:16;;;;;;;19.10;9.73;;;;;;;-143.21;75.45;74460.56;5048439;28;20731;-90
2024/01/24 08:44:43;;;;;;;16.10;9.07;;;;;;;-143.21;75.35;74466.50;5062343;28;20210;-90
2024/01/24 08:47:11;;;;;;;16.23;9.27;;;;;;;-143.21;75.16;74452.63;5045287;28;20202;-92
2024/01/24 08:49:38;;;;;;;17.93;9.77;;;;;;;-143.21;75.12;74446.66;5044939;28;20191;-94
2024/01/24 08:52:06;;;;;;;17.03;9.80;;;;;;;-143.21;75.03;74454.59;5055533;28;20620;-94
2024/01/24 08:54:33;;;;;;;16.67;10.13;;;;;;;-143.21;75.26;74448.66;5052550;28;20194;-94
2024/01/24 08:57:00;;;;;;;20.13;10.83;;;;;;;-143.21;75.04;74444.69;5054270;28;20237;-93
2024/01/24 08:59:27;;;;;;;21.73;12.10;;;;;;;-143.21;75.32;74454.59;5047788;28;20195;-93
2024/01/24 09:01:55;;;;;;;21.33;11.80;;;;;;;-143.21;75.41;74456.59;5034727;28;20201;-92
2024/01/24 09:04:25;;;;;;;22.30;11.03;;;;;;;-143.21;74.98;74454.59;5049569;28;20229;-95
2024/01/24 09:09:34;;;;;;;20.63;11.67;;;;;;;-143.21;74.99;74428.81;5053279;28;20281;-95
2024/01/24 09:12:03;;;;;;;24.30;11.20;;;;;;;-143.21;74.70;74432.78;5043784;28;20592;-94
2024/01/24 09:14:42;;;;;;;22.17;11.33;;;;;;;-143.21;75.09;74444.69;5050693;28;20218;-93
2024/01/24 09:17:09;;;;;;;20.03;11.37;;;;;;;-143.21;74.99;74444.69;5036107;28;20696;-89
2024/01/24 09:19:37;;;;;;;24.63;11.60;;;;;;;-143.21;75.70;74426.81;5039180;28;20203;-93
2024/01/24 09:22:05;;;;;;;24.17;12.37;;;;;;;-143.21;75.54;74426.81;5035335;28;20284;-93
2024/01/24 09:24:32;;;;;;;19.00;11.30;;;;;;;-143.21;74.58;74432.78;5039932;28;20226;-91
2024/01/24 09:27:02;;;;;;;20.33;10.87;;;;;;;-143.21;74.83;74438.72;5041091;28;20276;-92
2024/01/24 09:29:29;;;;;;;20.30;10.70;;;;;;;-143.21;74.46;74430.78;5033510;28;20206;-91
2024/01/24 09:31:56;;;;;;;20.50;10.73;;;;;;;-143.21;74.74;74430.78;5041229;28;20260;-90
2024/01/24 09:34:26;;;;;;;18.73;11.00;;;;;;;-143.21;74.59;74420.88;5043876;28;20195;-91
2024/01/24 09:36:54;;;;;;;22.00;11.17;;;;;;;-143.21;74.73;74424.84;5046997;28;20218;-92
2024/01/24 09:39:22;;;;;;;22.43;11.33;;;;;;;-143.21;74.72;74408.97;5037274;28;20264;-91
2024/01/24 09:41:52;;;;;;;22.23;11.00;;;;;;;-143.21;74.41;74414.91;5042049;28;20261;-92
2024/01/24 09:44:19;;;;;;;20.37;11.57;;;;;;;-143.21;74.59;74395.06;5039004;28;20195;-93
2024/01/24 09:47:01;;;;;;;21.63;11.23;;;;;;;-143.21;73.85;74385.16;5053566;28;20211;-92
2024/01/24 09:49:31;;;;;;;18.63;11.13;;;;;;;-143.21;74.04;74365.31;5042995;28;20276;-90
2024/01/24 09:52:02;;;;;;;19.60;10.73;;;;;;;-143.21;72.59;74361.34;5039522;28;20770;-93
2024/01/24 09:54:32;;;;;;;22.47;11.20;;;;;;;-143.21;73.02;74351.41;5044469;28;20249;-93
2024/01/24 09:57:01;;;;;;;22.60;11.43;;;;;;;-143.21;72.87;74327.59;5036316;28;20599;-93
2024/01/24 09:59:28;;;;;;;19.17;10.73;;;;;;;-143.21;72.26;74311.72;5043144;28;20601;-91
2024/01/24 10:04:39;;;;;;;18.40;10.43;;;;;;;-143.21;67.09;74075.59;5031068;28;20690;-93
2024/01/24 10:07:11;;;;;;;16.73;10.37;;;;;;;-143.21;64.70;73934.72;5032900;28;20207;-93
2024/01/24 10:09:38;;;;;;;16.83;9.53;;;;;;;-143.21;60.49;73823.63;5037243;28;20221;-91
2024/01/24 10:12:08;;;;;;;21.87;10.07;;;;;;;-143.21;59.90;73815.69;5044306;28;20266;-92
2024/01/24 10:14:35;;;;;;;18.00;10.33;;;;;;;-143.21;59.67;73758.16;5034889;28;20202;-92
2024/01/24 10:17:06;;;;;;;16.53;10.17;;;;;;;-143.21;57.68;73730.38;5042220;28;20221;-91
2024/01/24 10:19:33;;;;;;;18.73;10.67;;;;;;;-143.21;58.01;73686.72;5041000;28;20200;-92
2024/01/24 10:22:00;;;;;;;15.80;10.67;;;;;;;-143.21;56.34;73549.84;5035833;28;20198;-91
2024/01/24 10:24:31;;;;;;;21.80;11.50;;;;;;;-143.21;54.77;73458.59;5040671;28;20266;-91
2024/01/24 10:26:59;;;;;;;16.07;10.63;;;;;;;-143.21;51.77;73351.47;5038798;28;20194;-91
2024/01/24 10:29:26;;;;;;;18.23;11.60;;;;;;;-143.21;51.09;73319.72;5033767;28;20214;-90
2024/01/24 10:31:56;;;;;;;16.50;11.30;;;;;;;-143.21;50.54;73379.22;5044085;28;20952;-91
2024/01/24 10:34:28;;;;;;;19.03;11.47;;;;;;;-143.21;50.36;73315.75;5030119;28;20659;-90
2024/01/24 10:36:55;;;;;;;18.30;10.33;;;;;;;-143.21;49.69;73333.59;5034565;28;20550;-92
2024/01/24 10:39:24;;;;;;;17.13;11.20;;;;;;;-143.21;50.54;73323.69;5032547;28;20206;-91
2024/01/24 10:41:57;;;;;;;18.73;11.17;;;;;;;-143.21;49.33;73286.00;5034148;28;20225;-92
2024/01/24 10:44:26;;;;;;;21.07;12.40;;;;;;;-143.21;49.78;73270.13;5030896;28;20195;-91
2024/01/24 10:46:54;;;;;;;21.57;12.20;;;;;;;-143.21;48.62;73208.63;5042900;28;20660;-90
2024/01/24 10:49:24;;;;;;;20.37;11.87;;;;;;;-143.21;47.58;73168.97;5036542;28;20210;-92
2024/01/24 10:51:52;;;;;;;15.73;10.07;;;;;;;-143.21;48.00;73250.28;5038237;28;20675;-91
2024/01/24 10:54:24;;;;;;;15.20;9.70;;;;;;;-143.21;48.36;73262.19;5038032;28;20225;-92
2024/01/24 10:57:04;;;;;;;19.87;11.00;;;;;;;-143.21;47.65;73192.75;5036963;28;20218;-93
2024/01/24 10:59:33;;;;;;;17.67;10.40;;;;;;;-143.21;47.80;73220.53;5029491;28;20214;-92
2024/01/24 11:02:01;;;;;;;16.67;9.97;;;;;;;-143.21;47.82;73210.63;5037325;28;20227;-91
2024/01/24 11:04:29;;;;;;;19.00;9.83;;;;;;;-143.21;47.51;73127.31;5031320;28;20206;-90
2024/01/24 11:06:59;;;;;;;16.83;10.50;;;;;;;-143.21;46.39;73093.59;5037725;28;20222;-91
2024/01/24 11:09:34;;;;;;;17.60;8.13;;;;;;;-143.21;46.80;73220.53;5038357;28;20640;-91
2024/01/24 11:12:04;;;;;;;15.93;8.33;;;;;;;-143.21;48.08;73331.63;5033398;28;20202;-92